Terminal Aerodrome Forecast
Issued by NWS Sterling, VA

Current Version | Previous Version | Text Only | Print | Product List | Glossary On
Versions: 1 2 3 4 5 6 7 8 9 10 11 12
000
FTUS41 KLWX 252331
TAFMRB
TAF
KMRB 252331Z 2600/2624 26016G27KT P6SM FEW250
     FM260700 29013G22KT P6SM SCT040
     FM261900 28011G18KT P6SM FEW250
     FM262300 26007KT P6SM FEW250=

USA.gov is the U.S. government's official web portal to all federal, state and local government web resources and services.